DAB weather

Daytona Beach International Airport
Daytona Beach, Florida, United States

Public forecast

Using degrees Fahrenheit for public forecast. Weather courtesy of forecast.io.

METAR (pilot weather report)

Retrieved 2019/06/20 12:07 UTC (15 minutes ago):

KDAB 201207Z 22007KT 8SM BKN007 BKN180 25/25 A3002 RMK AO2 T02500250

TAF (pilot weather forecast)

Retrieved 2019/06/20 12:23 UTC (0 seconds ago):

TAF KDAB 201120Z 2012/2112 21007KT P6SM SCT150 SCT220 FM201400 24012G18KT P6SM SCT040 SCT250 FM210000 22008KT P6SM FEW050 SCT250